Chilliwack, Canada
Current Conditions -  °F | °C
As of 6:00 PM on Sunday 21 Dec 2014 (Local Time) from CYXX Reporting Station
Overcast Overcast  
Wind Chill: 44°   Ceiling: 18000
Heat Index: 48°   Visibility: 10mi
Dew Point: 45°   Wind: 9mph
Humidity: 87%   Direction: 180°S
Pressure: 30"   Gusts: NA
Location:  49.16°N, 121.95°W
Report Text: CYXX 220200Z 18008KT 10SM FEW050 OVC180 09/07 A3000 RMK SC1AS8 SC TR SLP160
Loading
Personal Weather Stations






























Interactive Weather Map New forecast layout! Learn more

10-Day Weather Forecast

Advertisements
Track Severe Weather on mobile